Time;durP1;ratioP1;P1;durP2;ratioP2;P2;SDS_P1;SDS_P2;PMS_P1;PMS_P2;Temp;Humidity;BMP_temperature;BMP_pressure;BME280_temperature;BME280_humidity;BME280_pressure;Samples;Min_cycle;Max_cycle;Signal;HPM_P1;HPM_P2
2023/07/21 00:02:07;;;;;;;4.60;3.25;;;13.70;99.90;;;;;;4895605;29;20039;-32
2023/07/21 00:04:33;;;;;;;4.38;2.92;;;13.70;99.90;;;;;;4895689;29;20055;-32
2023/07/21 00:06:58;;;;;;;3.28;2.97;;;13.80;99.90;;;;;;4891648;29;20107;-32
2023/07/21 00:09:24;;;;;;;4.03;3.22;;;13.80;99.90;;;;;;4895846;29;20048;-32
2023/07/21 00:11:50;;;;;;;3.65;3.35;;;13.80;99.90;;;;;;4889132;29;20523;-32
2023/07/21 00:14:16;;;;;;;4.57;3.30;;;13.70;99.90;;;;;;4902313;29;20293;-32
2023/07/21 00:16:42;;;;;;;5.50;3.13;;;13.80;99.90;;;;;;4892789;29;20037;-32
2023/07/21 00:19:08;;;;;;;4.20;3.15;;;13.80;99.90;;;;;;4891689;29;20127;-32
2023/07/21 00:21:37;;;;;;;5.10;3.20;;;13.80;99.90;;;;;;4894542;29;20048;-32
2023/07/21 00:24:03;;;;;;;4.22;3.00;;;13.80;99.90;;;;;;4898609;29;20645;-32
2023/07/21 00:26:30;;;;;;;4.00;3.10;;;13.80;99.90;;;;;;4901785;29;20526;-32
2023/07/21 00:28:57;;;;;;;4.35;3.45;;;13.90;99.90;;;;;;4878491;29;20042;-32
2023/07/21 00:31:22;;;;;;;3.47;3.17;;;13.90;99.90;;;;;;4891574;29;20041;-32
2023/07/21 00:33:48;;;;;;;3.30;2.92;;;13.90;99.90;;;;;;4894558;29;20069;-32
2023/07/21 00:36:14;;;;;;;5.65;3.10;;;13.90;99.90;;;;;;4898776;29;20040;-32
2023/07/21 00:38:40;;;;;;;4.75;3.35;;;13.90;99.90;;;;;;4893788;29;20045;-32
2023/07/21 00:41:06;;;;;;;3.47;2.85;;;13.80;99.90;;;;;;4895326;29;20410;-32
2023/07/21 00:43:33;;;;;;;3.97;2.75;;;13.80;99.90;;;;;;4894625;29;20083;-32
2023/07/21 00:45:58;;;;;;;4.85;3.13;;;13.90;99.90;;;;;;4894918;29;20479;-32
2023/07/21 00:48:24;;;;;;;5.30;3.28;;;13.90;99.90;;;;;;4894669;29;20112;-32
2023/07/21 00:50:52;;;;;;;3.03;2.72;;;13.90;99.90;;;;;;4894074;29;20077;-32
2023/07/21 00:53:19;;;;;;;4.40;3.10;;;14.00;99.90;;;;;;4896399;29;20036;-32
2023/07/21 00:55:47;;;;;;;3.95;3.10;;;13.90;99.90;;;;;;4883224;29;20052;-32
2023/07/21 00:58:14;;;;;;;3.63;3.20;;;13.90;99.90;;;;;;4886579;29;20052;-32
2023/07/21 01:00:40;;;;;;;4.38;3.13;;;13.90;99.90;;;;;;4889792;29;20414;-32
2023/07/21 01:03:08;;;;;;;4.18;2.95;;;13.90;99.90;;;;;;4900223;29;20115;-32
2023/07/21 01:05:38;;;;;;;7.70;3.40;;;13.80;99.90;;;;;;4877797;29;20057;-32
2023/07/21 01:08:05;;;;;;;4.72;3.10;;;13.80;99.90;;;;;;4894481;29;20040;-32
2023/07/21 01:10:33;;;;;;;5.00;3.65;;;13.80;99.90;;;;;;4894055;29;20036;-32
2023/07/21 01:13:00;;;;;;;3.83;3.08;;;13.80;99.90;;;;;;4899686;29;20047;-32
2023/07/21 01:15:28;;;;;;;4.22;3.60;;;13.80;99.90;;;;;;4894759;29;20064;-32
2023/07/21 01:17:55;;;;;;;5.22;3.22;;;13.80;99.90;;;;;;4898365;29;20045;-32
2023/07/21 01:20:27;;;;;;;3.90;2.90;;;13.80;99.90;;;;;;4895545;29;20487;-31
2023/07/21 01:23:05;;;;;;;3.40;3.05;;;13.80;99.90;;;;;;4895739;29;20127;-31
2023/07/21 01:25:34;;;;;;;4.50;2.83;;;13.80;99.90;;;;;;4895783;29;20058;-32
2023/07/21 01:28:02;;;;;;;3.75;3.30;;;13.70;99.90;;;;;;4895661;29;20157;-31
2023/07/21 01:30:29;;;;;;;3.63;2.95;;;13.70;99.90;;;;;;4894837;29;20697;-35
2023/07/21 01:32:56;;;;;;;3.85;3.50;;;13.70;99.90;;;;;;4904951;29;20598;-33
2023/07/21 01:35:23;;;;;;;3.50;3.13;;;13.70;99.90;;;;;;4905824;29;20124;-34
2023/07/21 01:37:49;;;;;;;4.63;3.38;;;13.70;99.90;;;;;;4891374;29;20044;-34
2023/07/21 01:40:16;;;;;;;3.78;3.33;;;13.70;99.90;;;;;;4893830;29;20403;-34
2023/07/21 01:42:44;;;;;;;4.25;3.22;;;13.60;99.90;;;;;;4892604;29;20055;-35
2023/07/21 01:45:10;;;;;;;4.32;3.10;;;13.60;99.90;;;;;;4890908;29;20408;-34
2023/07/21 01:47:36;;;;;;;4.90;3.70;;;13.60;99.90;;;;;;4893557;29;20050;-34
2023/07/21 01:50:07;;;;;;;4.53;3.67;;;13.60;99.90;;;;;;4894598;29;20048;-34
2023/07/21 01:52:35;;;;;;;6.07;3.92;;;13.60;99.90;;;;;;4894336;29;20451;-34
2023/07/21 01:55:16;;;;;;;3.95;3.60;;;13.50;99.90;;;;;;4893441;29;20048;-34
2023/07/21 01:57:46;;;;;;;4.55;3.38;;;13.50;99.90;;;;;;4891950;29;20036;-34
2023/07/21 02:00:14;;;;;;;5.35;3.97;;;13.60;99.90;;;;;;4876570;29;20041;-34
2023/07/21 02:02:42;;;;;;;4.32;3.40;;;13.60;99.90;;;;;;4899317;29;20040;-34
2023/07/21 02:05:26;;;;;;;5.00;3.60;;;13.60;99.90;;;;;;4900344;29;20084;-34
2023/07/21 02:07:51;;;;;;;4.35;3.35;;;13.60;99.90;;;;;;4875949;29;20048;-34
2023/07/21 02:10:18;;;;;;;4.55;3.47;;;13.60;99.90;;;;;;4893399;29;20455;-34
2023/07/21 02:12:44;;;;;;;3.92;3.30;;;13.60;99.90;;;;;;4894209;29;20375;-34
2023/07/21 02:15:10;;;;;;;4.10;3.47;;;13.60;99.90;;;;;;4903828;29;20036;-34
2023/07/21 02:17:37;;;;;;;4.07;3.00;;;13.60;99.90;;;;;;4894869;29;20047;-34
2023/07/21 02:20:08;;;;;;;3.35;2.80;;;13.60;99.90;;;;;;4878704;29;20084;-34
2023/07/21 02:22:36;;;;;;;3.85;3.42;;;13.60;99.90;;;;;;4885704;29;20073;-34
2023/07/21 02:25:03;;;;;;;4.68;2.97;;;13.50;99.90;;;;;;4893599;29;20075;-34
2023/07/21 02:27:29;;;;;;;4.40;3.38;;;13.50;99.90;;;;;;4895035;29;20052;-34
2023/07/21 02:29:56;;;;;;;4.10;2.95;;;13.60;99.90;;;;;;4888931;29;20033;-34
2023/07/21 02:32:22;;;;;;;3.45;3.15;;;13.50;99.90;;;;;;4888749;29;20510;-34
2023/07/21 02:34:47;;;;;;;3.58;3.28;;;13.50;99.90;;;;;;4892807;29;20044;-34
2023/07/21 02:37:13;;;;;;;4.70;3.47;;;13.50;99.90;;;;;;4893446;29;20041;-34
2023/07/21 02:39:39;;;;;;;4.45;4.00;;;13.50;99.90;;;;;;4893267;29;20036;-34
2023/07/21 02:42:05;;;;;;;4.35;4.05;;;13.40;99.90;;;;;;4895039;29;20040;-34
2023/07/21 02:44:31;;;;;;;4.53;4.13;;;13.40;99.90;;;;;;4896915;29;20099;-34
2023/07/21 02:46:58;;;;;;;6.45;4.50;;;13.40;99.90;;;;;;4896383;29;20076;-34
2023/07/21 02:49:24;;;;;;;7.45;4.38;;;13.40;99.90;;;;;;4896821;29;20036;-34
2023/07/21 02:51:50;;;;;;;4.50;3.80;;;13.40;99.90;;;;;;4895610;29;20549;-34
2023/07/21 02:54:16;;;;;;;4.25;3.85;;;13.30;99.90;;;;;;4902804;29;20105;-34
2023/07/21 02:56:42;;;;;;;4.55;4.15;;;13.40;99.90;;;;;;4896657;29;20056;-34
2023/07/21 02:59:09;;;;;;;4.88;4.47;;;13.40;99.90;;;;;;4879603;29;20083;-34
2023/07/21 03:01:36;;;;;;;4.68;4.15;;;13.30;99.90;;;;;;4897916;29;20045;-34
2023/07/21 03:04:03;;;;;;;4.28;3.88;;;13.30;99.90;;;;;;4901051;29;20045;-34
2023/07/21 03:06:30;;;;;;;4.78;4.38;;;13.30;99.90;;;;;;4896314;29;20513;-34
2023/07/21 03:08:57;;;;;;;5.65;4.10;;;13.30;99.90;;;;;;4900161;29;20044;-34
2023/07/21 03:11:23;;;;;;;8.25;4.18;;;13.30;99.90;;;;;;4895716;29;20039;-34
2023/07/21 03:13:49;;;;;;;5.72;4.57;;;13.20;99.90;;;;;;4893721;29;20041;-34
2023/07/21 03:16:15;;;;;;;6.53;4.78;;;13.30;99.90;;;;;;4895787;29;20059;-34
2023/07/21 03:18:41;;;;;;;7.13;4.80;;;13.30;99.90;;;;;;4894644;29;20515;-34
2023/07/21 03:21:07;;;;;;;4.80;4.13;;;13.30;99.90;;;;;;4875941;29;20037;-34
2023/07/21 03:23:34;;;;;;;5.60;4.88;;;13.30;99.90;;;;;;4893505;29;20052;-34
2023/07/21 03:26:00;;;;;;;6.43;4.85;;;13.30;99.90;;;;;;4897635;29;20395;-34
2023/07/21 03:28:26;;;;;;;5.35;4.18;;;13.30;99.90;;;;;;4903385;29;20119;-34
2023/07/21 03:31:02;;;;;;;5.93;4.68;;;13.30;99.90;;;;;;4895562;29;20033;-34
2023/07/21 03:33:29;;;;;;;4.75;4.13;;;13.30;99.90;;;;;;4891765;29;20406;-34
2023/07/21 03:36:00;;;;;;;5.40;4.90;;;13.30;99.90;;;;;;4895833;29;20041;-35
2023/07/21 03:38:27;;;;;;;6.93;4.45;;;13.30;99.90;;;;;;4891613;29;20090;-34
2023/07/21 03:41:07;;;;;;;5.93;4.97;;;13.20;99.90;;;;;;4894826;29;20041;-34
2023/07/21 03:43:35;;;;;;;4.95;4.45;;;13.30;99.90;;;;;;4878130;29;20379;-34
2023/07/21 03:46:02;;;;;;;5.05;4.25;;;13.20;99.90;;;;;;4897468;29;20045;-34
2023/07/21 03:48:29;;;;;;;5.32;4.00;;;13.20;99.90;;;;;;4899820;29;20036;-34
2023/07/21 03:50:59;;;;;;;6.68;4.45;;;13.20;99.90;;;;;;4887638;29;20112;-34
2023/07/21 03:53:25;;;;;;;4.90;4.50;;;13.20;99.90;;;;;;4895546;29;20041;-34
2023/07/21 03:55:51;;;;;;;5.35;4.40;;;13.20;99.90;;;;;;4902269;29;20471;-34
2023/07/21 03:58:18;;;;;;;5.15;4.15;;;13.20;99.90;;;;;;4895645;29;20048;-34
2023/07/21 04:00:44;;;;;;;5.72;4.20;;;13.20;99.90;;;;;;4894794;29;20044;-34
2023/07/21 04:03:10;;;;;;;5.65;4.50;;;13.20;99.90;;;;;;4902728;29;20053;-34
2023/07/21 04:05:36;;;;;;;5.00;4.03;;;13.20;99.90;;;;;;4901027;29;20403;-34
2023/07/21 04:08:03;;;;;;;5.07;4.50;;;13.20;99.90;;;;;;4894881;29;20048;-34
2023/07/21 04:10:30;;;;;;;5.03;4.53;;;13.20;99.90;;;;;;4895969;29;20051;-34
2023/07/21 04:12:56;;;;;;;4.50;3.75;;;13.20;99.90;;;;;;4886634;29;20084;-34
2023/07/21 04:15:26;;;;;;;5.13;4.63;;;13.10;99.90;;;;;;4877764;29;20108;-34
2023/07/21 04:17:53;;;;;;;6.90;4.28;;;13.20;99.90;;;;;;4893803;29;20043;-34
2023/07/21 04:20:19;;;;;;;4.20;3.60;;;13.20;99.90;;;;;;4895279;29;20064;-34
2023/07/21 04:22:45;;;;;;;4.25;3.80;;;13.30;99.90;;;;;;4877409;29;20841;-34
2023/07/21 04:25:11;;;;;;;4.68;3.90;;;13.30;99.90;;;;;;4895348;29;20436;-34
2023/07/21 04:27:38;;;;;;;4.32;3.90;;;13.40;99.90;;;;;;4898439;29;20096;-34
2023/07/21 04:30:04;;;;;;;6.03;4.25;;;13.40;99.90;;;;;;4894216;29;20044;-34
2023/07/21 04:32:33;;;;;;;4.43;3.95;;;13.40;99.90;;;;;;4893755;29;20096;-34
2023/07/21 04:34:59;;;;;;;5.20;4.22;;;13.40;99.90;;;;;;4903539;29;20483;-34
2023/07/21 04:37:25;;;;;;;5.43;4.55;;;13.50;99.90;;;;;;4889262;29;20068;-34
2023/07/21 04:39:51;;;;;;;4.65;4.20;;;13.50;99.90;;;;;;4901516;29;20094;-34
2023/07/21 04:42:17;;;;;;;8.32;4.25;;;13.50;99.90;;;;;;4896680;29;20072;-31
2023/07/21 04:44:44;;;;;;;5.00;4.50;;;13.60;99.90;;;;;;4895944;29;20036;-31
2023/07/21 04:47:10;;;;;;;4.93;4.00;;;13.60;99.90;;;;;;4886596;29;20401;-32
2023/07/21 04:49:36;;;;;;;4.68;4.30;;;13.60;99.90;;;;;;4897664;29;20040;-31
2023/07/21 04:52:04;;;;;;;4.72;4.18;;;13.60;99.90;;;;;;4913073;29;20043;-31
2023/07/21 04:54:29;;;;;;;7.50;4.50;;;13.70;99.90;;;;;;4892650;29;20059;-32
2023/07/21 04:56:55;;;;;;;4.82;4.40;;;13.70;99.90;;;;;;4914177;29;20433;-32
2023/07/21 04:59:21;;;;;;;5.40;4.90;;;13.70;99.90;;;;;;4914930;29;20044;-32
2023/07/21 05:01:47;;;;;;;6.93;5.25;;;13.70;99.90;;;;;;4914299;29;20538;-32
2023/07/21 05:04:16;;;;;;;5.90;4.70;;;13.70;99.90;;;;;;4913253;29;20044;-31
2023/07/21 05:06:43;;;;;;;6.75;5.35;;;13.70;99.90;;;;;;4896699;29;20154;-31
2023/07/21 05:09:10;;;;;;;8.15;5.40;;;13.70;99.90;;;;;;4914721;29;20119;-31
2023/07/21 05:11:36;;;;;;;6.03;5.13;;;13.70;99.90;;;;;;4914773;29;20494;-32
2023/07/21 05:14:03;;;;;;;7.78;5.63;;;13.80;99.90;;;;;;4912539;29;20195;-31
2023/07/21 05:16:29;;;;;;;8.05;5.40;;;13.80;99.90;;;;;;4909369;29;20417;-32
2023/07/21 05:18:55;;;;;;;7.53;5.13;;;13.80;99.90;;;;;;4909270;29;20486;-32
2023/07/21 05:21:21;;;;;;;6.10;5.50;;;13.80;99.90;;;;;;4909011;29;20092;-31
2023/07/21 05:23:46;;;;;;;8.00;5.75;;;13.90;99.90;;;;;;4907702;29;20040;-31
2023/07/21 05:26:12;;;;;;;6.95;5.95;;;13.80;99.90;;;;;;4908856;29;20040;-31
2023/07/21 05:28:38;;;;;;;7.20;5.85;;;13.90;99.90;;;;;;4891519;29;20043;-31
2023/07/21 05:31:04;;;;;;;5.68;5.15;;;14.00;99.90;;;;;;4911980;29;20067;-32
2023/07/21 05:33:30;;;;;;;7.32;5.68;;;14.00;99.90;;;;;;4897160;29;20032;-32
2023/07/21 05:36:07;;;;;;;5.93;5.38;;;14.10;99.90;;;;;;4913879;29;20052;-32
2023/07/21 05:38:34;;;;;;;6.05;5.22;;;14.10;99.90;;;;;;4914147;29;20047;-32
2023/07/21 05:41:00;;;;;;;6.20;5.60;;;14.10;99.90;;;;;;4913660;29;20044;-32
2023/07/21 05:43:26;;;;;;;6.95;5.53;;;14.20;99.90;;;;;;4913810;29;20055;-32
2023/07/21 05:45:52;;;;;;;5.55;5.00;;;14.20;99.90;;;;;;4913598;29;20044;-32
2023/07/21 05:48:18;;;;;;;7.40;5.22;;;14.30;99.90;;;;;;4913788;29;20040;-32
2023/07/21 05:50:44;;;;;;;7.55;5.18;;;14.40;99.90;;;;;;4913678;29;20071;-32
2023/07/21 05:53:09;;;;;;;5.82;5.20;;;14.50;99.90;;;;;;4914201;29;20119;-32
2023/07/21 05:55:35;;;;;;;9.80;4.80;;;14.50;99.90;;;;;;4914036;29;20050;-32
2023/07/21 05:58:01;;;;;;;6.30;4.85;;;14.60;99.90;;;;;;4913930;29;20629;-31
2023/07/21 06:00:27;;;;;;;6.70;4.97;;;14.70;99.90;;;;;;4910154;29;20124;-32
2023/07/21 06:02:53;;;;;;;6.90;5.18;;;14.80;99.90;;;;;;4879442;29;20513;-32
2023/07/21 06:05:19;;;;;;;4.90;3.90;;;14.90;99.90;;;;;;4896896;29;20105;-32
2023/07/21 06:07:45;;;;;;;4.50;4.10;;;15.00;99.90;;;;;;4896485;29;20578;-32
2023/07/21 06:10:14;;;;;;;5.55;3.97;;;15.10;99.90;;;;;;4894980;29;20402;-32
2023/07/21 06:12:40;;;;;;;6.07;4.40;;;15.20;99.90;;;;;;4894064;29;20044;-32
2023/07/21 06:15:08;;;;;;;6.43;4.45;;;15.30;99.90;;;;;;4894752;29;20450;-32
2023/07/21 06:17:33;;;;;;;7.90;4.78;;;15.40;99.90;;;;;;4896674;29;20040;-31
2023/07/21 06:20:00;;;;;;;6.25;3.70;;;15.50;99.90;;;;;;4898034;29;20096;-32
2023/07/21 06:22:26;;;;;;;4.78;3.58;;;15.60;99.90;;;;;;4898263;29;20051;-32
2023/07/21 06:24:52;;;;;;;5.22;3.20;;;15.80;99.90;;;;;;4897918;29;20045;-31
2023/07/21 06:27:18;;;;;;;7.10;3.22;;;15.90;99.90;;;;;;4898116;29;20109;-31
2023/07/21 06:29:44;;;;;;;4.40;3.28;;;15.90;99.90;;;;;;4897788;29;20108;-32
2023/07/21 06:32:09;;;;;;;4.85;3.10;;;16.00;99.90;;;;;;4898056;29;20041;-32
2023/07/21 06:34:36;;;;;;;4.45;2.30;;;16.00;99.90;;;;;;4898159;29;20180;-31
2023/07/21 06:37:02;;;;;;;6.10;2.95;;;16.00;99.90;;;;;;4898092;29;20096;-32
2023/07/21 06:39:28;;;;;;;8.07;3.22;;;16.10;99.90;;;;;;4897259;29;20402;-32
2023/07/21 06:41:53;;;;;;;4.13;2.78;;;16.20;99.90;;;;;;4897698;29;20116;-32
2023/07/21 06:44:20;;;;;;;3.47;2.50;;;16.20;99.90;;;;;;4897768;29;20574;-32
2023/07/21 06:46:49;;;;;;;8.82;2.53;;;16.30;99.90;;;;;;4897437;29;20444;-32
2023/07/21 06:49:15;;;;;;;3.63;2.22;;;16.40;99.90;;;;;;4896745;29;20409;-32
2023/07/21 06:51:40;;;;;;;4.20;2.63;;;16.50;99.90;;;;;;4897448;29;20048;-32
2023/07/21 06:54:08;;;;;;;3.85;2.30;;;16.60;99.90;;;;;;4895247;29;20028;-32
2023/07/21 06:56:34;;;;;;;4.55;2.65;;;16.70;99.90;;;;;;4880875;29;20405;-32
2023/07/21 06:59:00;;;;;;;4.78;2.50;;;16.80;99.90;;;;;;4897321;29;20439;-32
2023/07/21 07:01:25;;;;;;;4.32;2.40;;;16.90;99.90;;;;;;4897563;29;20124;-32
2023/07/21 07:03:51;;;;;;;2.83;2.00;;;17.00;99.90;;;;;;4897289;29;20512;-32
2023/07/21 07:06:17;;;;;;;2.45;1.90;;;17.20;99.90;;;;;;4897639;29;20502;-32
2023/07/21 07:08:43;;;;;;;3.90;2.22;;;17.30;99.90;;;;;;4897191;29;20092;-32
2023/07/21 07:11:11;;;;;;;3.90;2.25;;;17.40;99.90;;;;;;4897048;29;20115;-32
2023/07/21 07:13:37;;;;;;;3.33;2.28;;;17.60;99.90;;;;;;4896753;29;20041;-32
2023/07/21 07:16:03;;;;;;;3.25;2.40;;;17.80;99.90;;;;;;4896911;29;20173;-32
2023/07/21 07:18:29;;;;;;;4.38;2.47;;;17.90;99.90;;;;;;4880247;29;20041;-32
2023/07/21 07:20:56;;;;;;;3.47;2.05;;;18.00;99.90;;;;;;4897065;29;20047;-32
2023/07/21 07:23:23;;;;;;;4.03;2.10;;;18.00;99.90;;;;;;4897194;29;20048;-32
2023/07/21 07:25:51;;;;;;;4.57;2.03;;;18.00;99.90;;;;;;4897227;29;20049;-32
2023/07/21 07:28:19;;;;;;;4.68;1.88;;;18.00;99.90;;;;;;4914794;29;20275;-32
2023/07/21 07:30:45;;;;;;;3.47;1.80;;;18.20;99.90;;;;;;4903559;29;20411;-32
2023/07/21 07:33:11;;;;;;;3.88;2.10;;;18.30;99.90;;;;;;4897229;29;20407;-32
2023/07/21 07:35:45;;;;;;;3.70;2.30;;;18.50;99.90;;;;;;4897358;29;20044;-32
2023/07/21 07:38:11;;;;;;;2.38;1.92;;;18.60;99.90;;;;;;4897106;29;20083;-32
2023/07/21 07:40:37;;;;;;;2.53;1.85;;;18.70;99.90;;;;;;4897253;29;20084;-32
2023/07/21 07:43:03;;;;;;;6.38;1.90;;;18.90;99.90;;;;;;4896975;29;20447;-32
2023/07/21 07:45:29;;;;;;;3.28;1.90;;;19.00;99.90;;;;;;4897254;29;20087;-32
2023/07/21 07:47:55;;;;;;;2.72;1.90;;;19.10;99.90;;;;;;4896661;29;20100;-32
2023/07/21 07:50:21;;;;;;;1.60;1.50;;;19.20;99.90;;;;;;4897261;29;20041;-32
2023/07/21 07:52:47;;;;;;;1.75;1.60;;;19.30;99.90;;;;;;4896864;29;20036;-32
2023/07/21 07:55:15;;;;;;;2.42;1.58;;;19.40;99.90;;;;;;4897067;29;20479;-32
2023/07/21 07:57:40;;;;;;;3.63;2.00;;;19.50;99.90;;;;;;4896903;29;20044;-32
2023/07/21 08:00:08;;;;;;;2.90;1.80;;;19.70;99.90;;;;;;4880391;29;20093;-32
2023/07/21 08:02:34;;;;;;;2.42;1.63;;;19.80;99.90;;;;;;4896953;29;20124;-32
2023/07/21 08:04:59;;;;;;;2.30;1.60;;;20.00;99.90;;;;;;4896095;29;20119;-34
2023/07/21 08:07:25;;;;;;;3.00;1.88;;;20.00;99.90;;;;;;4884163;29;20109;-34
2023/07/21 08:09:51;;;;;;;2.95;1.80;;;20.10;99.90;;;;;;4900035;29;20076;-34
2023/07/21 08:12:17;;;;;;;1.90;1.80;;;20.20;99.90;;;;;;4887347;29;20082;-33
2023/07/21 08:14:43;;;;;;;2.85;1.80;;;20.40;99.90;;;;;;4894549;29;20045;-33
2023/07/21 08:17:09;;;;;;;3.15;1.70;;;20.40;99.90;;;;;;4898377;29;20059;-34
2023/07/21 08:19:35;;;;;;;2.60;1.80;;;20.50;99.90;;;;;;4865569;29;20052;-34
2023/07/21 08:22:07;;;;;;;1.73;1.60;;;20.70;99.90;;;;;;4899630;29;20051;-33
2023/07/21 08:24:33;;;;;;;1.88;1.45;;;20.70;99.90;;;;;;4894518;29;20105;-34
2023/07/21 08:26:59;;;;;;;1.65;1.48;;;20.70;99.90;;;;;;4894989;29;20052;-33
2023/07/21 08:29:27;;;;;;;3.10;1.65;;;20.90;99.90;;;;;;4897302;29;20040;-33
2023/07/21 08:31:53;;;;;;;1.65;1.45;;;21.00;99.90;;;;;;4894179;29;20406;-34
2023/07/21 08:34:19;;;;;;;1.98;1.38;;;21.20;99.90;;;;;;4888368;29;20043;-33
2023/07/21 08:36:44;;;;;;;2.08;1.48;;;21.40;99.90;;;;;;4894716;29;20139;-34
2023/07/21 08:39:10;;;;;;;1.70;1.60;;;21.60;99.90;;;;;;4877704;29;20178;-34
2023/07/21 08:41:46;;;;;;;2.15;1.50;;;21.80;99.90;;;;;;4893988;29;20033;-34
2023/07/21 08:44:13;;;;;;;2.45;1.50;;;21.90;99.90;;;;;;4897206;29;20048;-34
2023/07/21 08:46:39;;;;;;;1.90;1.70;;;22.00;99.90;;;;;;4899899;29;20154;-33
2023/07/21 08:49:06;;;;;;;2.13;1.50;;;22.10;99.90;;;;;;4899212;29;20538;-34
2023/07/21 08:51:32;;;;;;;1.95;1.70;;;22.10;99.90;;;;;;4884858;29;20040;-33
2023/07/21 08:53:57;;;;;;;1.75;1.50;;;22.40;99.90;;;;;;4898381;29;20036;-33
2023/07/21 08:56:24;;;;;;;2.05;1.50;;;22.60;99.90;;;;;;4898013;29;20112;-34
2023/07/21 08:58:49;;;;;;;3.60;1.60;;;22.40;99.90;;;;;;4896420;29;20442;-33
2023/07/21 09:01:16;;;;;;;3.33;1.48;;;22.50;99.90;;;;;;4894480;29;20029;-34
2023/07/21 09:03:46;;;;;;;1.70;1.60;;;22.40;99.90;;;;;;4893187;29;20045;-34
2023/07/21 09:06:14;;;;;;;1.70;1.38;;;22.60;99.60;;;;;;4895906;29;20041;-33
2023/07/21 09:08:40;;;;;;;1.95;1.50;;;22.60;99.10;;;;;;4886361;29;20206;-33
2023/07/21 09:11:08;;;;;;;1.98;1.38;;;22.70;98.70;;;;;;4903271;29;20131;-34
2023/07/21 09:13:33;;;;;;;2.75;1.60;;;22.90;97.30;;;;;;4896675;29;20037;-34
2023/07/21 09:16:05;;;;;;;1.58;1.30;;;23.00;96.00;;;;;;4883395;29;20049;-34
2023/07/21 09:18:42;;;;;;;2.42;1.33;;;22.90;93.30;;;;;;4889111;29;20052;-34
2023/07/21 09:21:20;;;;;;;1.30;1.20;;;23.00;92.80;;;;;;4889375;29;20122;-33
2023/07/21 09:23:46;;;;;;;2.78;1.90;;;23.10;90.60;;;;;;4891816;29;20398;-34
2023/07/21 09:26:15;;;;;;;3.55;1.65;;;23.20;93.90;;;;;;4901027;29;20044;-34
2023/07/21 09:28:42;;;;;;;2.15;1.88;;;23.40;93.30;;;;;;4877074;29;20041;-34
2023/07/21 09:31:08;;;;;;;1.52;1.20;;;23.60;92.80;;;;;;4898360;29;20080;-34
2023/07/21 09:33:38;;;;;;;1.27;1.17;;;23.90;91.90;;;;;;4903592;29;20406;-34
2023/07/21 09:36:05;;;;;;;1.63;1.40;;;24.10;88.90;;;;;;4896196;29;20076;-34
2023/07/21 09:38:31;;;;;;;1.40;1.30;;;24.00;86.40;;;;;;4901526;29;20123;-33
2023/07/21 09:41:02;;;;;;;1.30;1.20;;;24.20;85.10;;;;;;4894147;29;20040;-34
2023/07/21 09:43:29;;;;;;;1.55;1.30;;;24.60;81.10;;;;;;4893263;29;20503;-34
2023/07/21 09:46:00;;;;;;;1.63;1.50;;;24.60;79.30;;;;;;4894477;29;20040;-34
2023/07/21 09:48:30;;;;;;;3.58;1.50;;;24.60;80.00;;;;;;4893945;29;20048;-34
2023/07/21 09:51:01;;;;;;;2.08;1.70;;;24.80;79.50;;;;;;4898834;29;20279;-34
2023/07/21 09:53:45;;;;;;;1.92;1.83;;;24.30;77.70;;;;;;4872975;29;20077;-34
2023/07/21 09:56:13;;;;;;;1.70;1.60;;;23.90;77.50;;;;;;4890463;29;20040;-34
2023/07/21 09:58:46;;;;;;;2.67;1.70;;;23.70;80.10;;;;;;4887895;29;20044;-33
2023/07/21 10:01:12;;;;;;;3.08;1.98;;;23.70;81.50;;;;;;4876937;29;20045;-34
2023/07/21 10:03:38;;;;;;;3.75;1.88;;;24.20;84.80;;;;;;4891139;29;20040;-34
2023/07/21 10:06:06;;;;;;;2.67;1.90;;;24.30;82.40;;;;;;4878233;29;20040;-35
2023/07/21 10:08:33;;;;;;;2.35;1.77;;;24.30;80.00;;;;;;4894193;29;20044;-34
2023/07/21 10:11:00;;;;;;;1.85;1.40;;;24.50;79.10;;;;;;4896200;29;20161;-33
2023/07/21 10:13:27;;;;;;;3.03;1.40;;;24.60;77.30;;;;;;4893895;29;20048;-34
2023/07/21 10:16:19;;;;;;;2.25;1.58;;;24.70;75.40;;;;;;4877344;29;20072;-35
2023/07/21 10:19:07;;;;;;;1.98;1.70;;;24.70;73.90;;;;;;4894086;29;20037;-34
2023/07/21 10:21:54;;;;;;;1.73;1.40;;;24.60;71.90;;;;;;4890487;29;20521;-35
2023/07/21 10:24:23;;;;;;;1.40;1.30;;;24.40;71.90;;;;;;4895282;29;20040;-34
2023/07/21 10:27:02;;;;;;;1.65;1.55;;;24.50;73.90;;;;;;4899485;29;20052;-34
2023/07/21 10:29:29;;;;;;;1.67;1.20;;;24.50;72.70;;;;;;4896479;29;20546;-34
2023/07/21 10:31:56;;;;;;;3.53;1.60;;;24.50;73.80;;;;;;4891192;29;20130;-34
2023/07/21 10:34:34;;;;;;;1.42;1.30;;;24.60;73.80;;;;;;4907280;29;20059;-34
2023/07/21 10:37:02;;;;;;;1.60;1.30;;;24.90;71.90;;;;;;4892685;29;20588;-35
2023/07/21 10:39:37;;;;;;;1.77;1.40;;;25.20;72.50;;;;;;4893496;29;20494;-34
2023/07/21 10:42:06;;;;;;;2.22;1.40;;;25.50;67.30;;;;;;4870997;29;20056;-35
2023/07/21 10:44:39;;;;;;;2.10;1.60;;;25.80;68.80;;;;;;4893716;29;20459;-34
2023/07/21 10:47:18;;;;;;;2.28;1.60;;;25.80;67.00;;;;;;4894271;29;20509;-34
2023/07/21 10:49:46;;;;;;;1.77;1.33;;;26.00;65.30;;;;;;4893717;29;20085;-34
2023/07/21 10:52:12;;;;;;;1.88;1.55;;;26.00;64.90;;;;;;4894706;29;20549;-34
2023/07/21 10:54:38;;;;;;;1.83;1.33;;;26.10;66.00;;;;;;4892490;29;20032;-35
2023/07/21 10:57:05;;;;;;;1.40;1.30;;;26.10;66.10;;;;;;4888011;29;20044;-35
2023/07/21 10:59:33;;;;;;;2.33;1.27;;;26.20;65.40;;;;;;4893944;29;20055;-34
2023/07/21 11:01:59;;;;;;;1.98;1.42;;;26.00;65.00;;;;;;4900951;29;20032;-34
2023/07/21 11:04:25;;;;;;;1.40;1.30;;;25.80;62.80;;;;;;4899706;29;20194;-34
2023/07/21 11:06:53;;;;;;;1.95;1.20;;;25.40;61.90;;;;;;4881075;29;20080;-35
2023/07/21 11:09:21;;;;;;;1.67;1.20;;;25.00;61.10;;;;;;4900787;29;20554;-35
2023/07/21 11:11:57;;;;;;;1.70;1.33;;;24.70;62.10;;;;;;4899281;29;20047;-34
2023/07/21 11:14:25;;;;;;;3.85;1.80;;;24.40;62.60;;;;;;4897978;29;20511;-34
2023/07/21 11:16:53;;;;;;;3.63;1.58;;;24.30;65.10;;;;;;4904367;29;20159;-34
2023/07/21 11:19:21;;;;;;;3.67;1.70;;;24.60;66.70;;;;;;4896952;29;20440;-34
2023/07/21 11:21:50;;;;;;;1.92;1.55;;;25.10;67.30;;;;;;4895444;29;20167;-34
2023/07/21 11:24:24;;;;;;;4.03;1.42;;;25.60;66.20;;;;;;4904537;29;20048;-35
2023/07/21 11:26:53;;;;;;;2.33;1.60;;;25.80;63.80;;;;;;4899918;29;20036;-35
2023/07/21 11:29:19;;;;;;;3.47;1.92;;;26.00;64.70;;;;;;4896803;29;20415;-35
2023/07/21 11:31:45;;;;;;;2.17;1.98;;;26.30;64.70;;;;;;4879983;29;20041;-34
2023/07/21 11:34:24;;;;;;;2.30;1.60;;;26.40;64.20;;;;;;4896995;29;20453;-35
2023/07/21 11:37:00;;;;;;;2.97;1.98;;;26.20;62.60;;;;;;4903029;29;20071;-34
2023/07/21 11:39:27;;;;;;;2.13;1.90;;;26.10;62.30;;;;;;4896767;29;20056;-34
2023/07/21 11:41:56;;;;;;;3.63;2.38;;;26.10;64.00;;;;;;4897613;29;20048;-35
2023/07/21 11:44:31;;;;;;;2.78;2.58;;;26.10;64.60;;;;;;4874468;29;20072;-34
2023/07/21 11:47:10;;;;;;;2.22;2.00;;;26.30;62.70;;;;;;4895237;29;20036;-35
2023/07/21 11:49:44;;;;;;;2.03;1.63;;;26.70;62.80;;;;;;4898781;29;20053;-36
2023/07/21 11:52:22;;;;;;;2.35;1.85;;;26.80;62.00;;;;;;4879302;29;20118;-36
2023/07/21 11:54:47;;;;;;;2.30;2.10;;;26.90;61.70;;;;;;4887357;29;20563;-35
2023/07/21 11:57:13;;;;;;;2.67;1.85;;;26.70;60.10;;;;;;4887095;29;20041;-35
2023/07/21 11:59:39;;;;;;;2.10;1.90;;;26.50;60.40;;;;;;4891061;29;20041;-35
2023/07/21 12:02:09;;;;;;;1.42;1.20;;;26.60;60.50;;;;;;4895932;29;20040;-35
2023/07/21 12:04:37;;;;;;;3.42;1.73;;;27.00;60.50;;;;;;4894282;29;20048;-35
2023/07/21 12:07:03;;;;;;;1.60;1.50;;;26.90;58.40;;;;;;4892532;29;20040;-35
2023/07/21 12:09:31;;;;;;;1.90;1.80;;;27.00;58.00;;;;;;4896002;29;20052;-35
2023/07/21 12:11:57;;;;;;;1.73;1.63;;;26.90;58.90;;;;;;4891685;29;20041;-35
2023/07/21 12:14:24;;;;;;;2.22;2.00;;;27.10;59.00;;;;;;4904652;29;20051;-35
2023/07/21 12:16:53;;;;;;;2.30;1.60;;;27.10;58.40;;;;;;4891370;29;20522;-35
2023/07/21 12:19:19;;;;;;;2.70;2.00;;;26.60;58.40;;;;;;4891789;29;20517;-35
2023/07/21 12:21:45;;;;;;;2.65;2.10;;;26.30;58.90;;;;;;4889381;29;20041;-35
2023/07/21 12:24:11;;;;;;;1.58;1.48;;;26.60;59.70;;;;;;4880087;29;20039;-35
2023/07/21 12:26:37;;;;;;;1.77;1.67;;;27.00;59.20;;;;;;4871684;29;20040;-35
2023/07/21 12:29:03;;;;;;;2.55;2.10;;;27.30;58.30;;;;;;4893585;29;20234;-35
2023/07/21 12:31:28;;;;;;;1.58;1.48;;;27.80;56.10;;;;;;4898677;29;20207;-35
2023/07/21 12:33:54;;;;;;;1.60;1.50;;;27.90;56.70;;;;;;4893572;29;20041;-35
2023/07/21 12:36:20;;;;;;;1.55;1.30;;;28.30;56.70;;;;;;4890354;29;20378;-35
2023/07/21 12:38:46;;;;;;;1.58;1.48;;;27.80;54.70;;;;;;4888069;29;20391;-35
2023/07/21 12:41:13;;;;;;;1.40;1.30;;;27.40;54.70;;;;;;4890227;29;20045;-35
2023/07/21 12:43:38;;;;;;;1.48;1.38;;;27.50;55.40;;;;;;4892611;29;20146;-35
2023/07/21 12:46:05;;;;;;;1.60;1.00;;;27.90;53.80;;;;;;4895222;29;20484;-35
2023/07/21 12:48:32;;;;;;;1.10;0.85;;;27.90;54.70;;;;;;4891414;29;20047;-35
2023/07/21 12:50:58;;;;;;;1.42;1.00;;;28.00;52.90;;;;;;4888094;29;20044;-35